^^
Saratoga-Weather Station Historical Data
Daily Summary for June 14, 2021 Units:  English    Metric   Both
Daily Weekly Monthly Yearly Custom
  High: Low: Average:
Temperature: 64 °F 59.4 °F 60.8 °F
Dew Point: 62.2 °F 57.6 °F 59.2 °F
Humidity: 96% 93% 95%
Wind Speed: 12.1mph 0mph 2mph
Wind Gust: 12mph - -
Wind- - SW
Pressure: 29.8 in 29.8 in -
Precipitation: 1.91 in    
Historical Graphs
 
 
Tabular Data for June 14, 2021
Time Temperature Dew Point Pressure Wind Wind Speed Wind Gust Humidity Rainfall Rate (Hourly) solar
00:04 59.7 °F 58.3 °F 29.8 in WSW 0.9 mph 4 mph 95% 0 in 0 W/m2
00:09 59.7 °F 58.3 °F 29.8 in Calm   1 mph 95% 0 in 0 W/m2
00:14 59.7 °F 58.3 °F 29.8 in Calm   1 mph 95% 0 in 0 W/m2
00:19 59.7 °F 58.3 °F 29.8 in WSW 0.9 mph 4 mph 95% 0 in 0 W/m2
00:24 59.7 °F 58.3 °F 29.8 in Calm   2 mph 95% 0 in 0 W/m2
00:29 59.7 °F 58.3 °F 29.8 in Calm   1 mph 95% 0 in 0 W/m2
00:34 59.7 °F 58.3 °F 29.8 in NNW 2 mph 2 mph 95% 0 in 0 W/m2
00:39 59.9 °F 58.5 °F 29.8 in Calm   1 mph 95% 0 in 0 W/m2
00:44 59.9 °F 58.5 °F 29.8 in Calm   1 mph 95% 0 in 0 W/m2
00:49 59.7 °F 58.3 °F 29.8 in West 0.9 mph 4 mph 95% 0 in 0 W/m2
00:54 59.7 °F 58.3 °F 29.8 in WNW 0.9 mph 2 mph 95% 0 in 0 W/m2
00:59 59.5 °F 57.7 °F 29.8 in West 0.9 mph 3 mph 94% 0 in 0 W/m2
01:04 59.5 °F 58.1 °F 29.8 in West 2 mph 3 mph 95% 0 in 0 W/m2
01:09 59.5 °F 58.1 °F 29.8 in Calm   3 mph 95% 0 in 0 W/m2
01:14 59.4 °F 57.6 °F 29.8 in West 2 mph 2 mph 94% 0 in 0 W/m2
01:19 59.4 °F 57.9 °F 29.8 in West 2 mph 8 mph 95% 0 in 0 W/m2
01:24 59.5 °F 58.1 °F 29.8 in WSW 0.9 mph 2 mph 95% 0 in 0 W/m2
01:29 59.5 °F 58.1 °F 29.8 in Calm   8 mph 95% 0 in 0 W/m2
01:34 59.5 °F 58.1 °F 29.8 in WNW 2 mph 2 mph 95% 0 in 0 W/m2
01:39 59.5 °F 58.1 °F 29.8 in Calm   2 mph 95% 0 in 0 W/m2
01:44 59.7 °F 58.3 °F 29.8 in ESE 2 mph 4 mph 95% 0 in 0 W/m2
01:49 59.7 °F 58.3 °F 29.8 in South 0.9 mph 2 mph 95% 0 in 0 W/m2
01:54 59.7 °F 58.3 °F 29.8 in East 0.9 mph 2 mph 95% 0 in 0 W/m2
01:59 59.7 °F 58.3 °F 29.8 in SE 2 mph 2 mph 95% 0 in 0 W/m2
02:04 59.7 °F 58.3 °F 29.8 in Calm   3 mph 95% 0 in 0 W/m2
02:09 59.7 °F 58.3 °F 29.8 in NNE 0.9 mph 2 mph 95% 0 in 0 W/m2
02:14 59.7 °F 58.3 °F 29.8 in Calm   2 mph 95% 0 in 0 W/m2
02:19 59.9 °F 58.5 °F 29.8 in ENE 2 mph 2 mph 95% 0 in 0 W/m2
02:24 59.9 °F 58.5 °F 29.8 in NE 2.9 mph 4 mph 95% 0 in 0 W/m2
02:29 59.9 °F 58.5 °F 29.8 in NE 2.9 mph 4 mph 95% 0 in 0 W/m2
02:34 60.1 °F 58.6 °F 29.8 in NE 2 mph 3 mph 95% 0 in 0 W/m2
02:39 60.1 °F 58.6 °F 29.8 in NE 2 mph 2 mph 95% 0 in 0 W/m2
02:44 60.1 °F 58.6 °F 29.8 in NE 0.9 mph 4 mph 95% 0 in 0 W/m2
02:49 60.1 °F 58.6 °F 29.8 in Calm   1 mph 95% 0 in 0 W/m2
02:55 60.1 °F 58.6 °F 29.8 in Calm   1 mph 95% 0 in 0 W/m2
03:00 60.1 °F 58.6 °F 29.8 in Calm   2 mph 95% 0 in 0 W/m2
03:05 60.1 °F 58.6 °F 29.8 in North 2 mph 2 mph 95% 0 in 0 W/m2
03:10 60.1 °F 58.6 °F 29.8 in WNW 0.9 mph 3 mph 95% 0 in 0 W/m2
03:15 59.9 °F 58.5 °F 29.8 in Calm   1 mph 95% 0 in 0 W/m2
03:20 59.9 °F 58.5 °F 29.8 in Calm   1 mph 95% 0 in 0 W/m2
03:25 59.9 °F 58.5 °F 29.8 in Calm   2 mph 95% 0 in 0 W/m2
03:30 59.9 °F 58.5 °F 29.8 in NNE 0.9 mph 2 mph 95% 0 in 0 W/m2
03:35 60.1 °F 58.6 °F 29.8 in Calm     95% 0 in 0 W/m2
03:40 59.9 °F 58.5 °F 29.8 in NW 0.9 mph 2 mph 95% 0 in 0 W/m2
03:45 59.9 °F 58.5 °F 29.8 in Calm     95% 0 in 0 W/m2
03:50 59.9 °F 58.5 °F 29.8 in ENE 0.9 mph 3 mph 95% 0 in 0 W/m2
03:55 59.9 °F 58.5 °F 29.8 in Calm   1 mph 95% 0 in 0 W/m2
04:00 59.9 °F 58.5 °F 29.8 in NE 0.9 mph 2 mph 95% 0 in 0 W/m2
04:05 59.9 °F 58.5 °F 29.8 in Calm     95% 0 in 0 W/m2
04:10 59.9 °F 58.5 °F 29.8 in Calm   1 mph 95% 0 in 0 W/m2
04:15 59.9 °F 58.5 °F 29.8 in Calm     95% 0 in 0 W/m2
04:20 59.9 °F 58.5 °F 29.8 in NE 0.9 mph 2 mph 95% 0 in 0 W/m2
04:25 59.9 °F 58.5 °F 29.8 in ENE 2 mph 2 mph 95% 0 in 0 W/m2
04:30 59.9 °F 58.5 °F 29.8 in East 0.9 mph 1 mph 95% 0 in 0 W/m2
04:35 60.1 °F 58.6 °F 29.8 in ENE 0.9 mph 3 mph 95% 0 in 0 W/m2
04:40 60.1 °F 58.6 °F 29.8 in NE 2 mph 4 mph 95% 0 in 0 W/m2
04:45 60.1 °F 58.6 °F 29.8 in ESE 0.9 mph 2 mph 95% 0 in 0 W/m2
04:50 60.1 °F 58.3 °F 29.8 in Calm   4 mph 94% 0 in 0 W/m2
04:55 60.1 °F 58.6 °F 29.8 in East 0.9 mph 3 mph 95% 0 in 0 W/m2
05:00 60.1 °F 58.3 °F 29.8 in East 2 mph 4 mph 94% 0 in 0 W/m2
05:05 60.1 °F 58.3 °F 29.8 in Calm   2 mph 94% 0 in 0 W/m2
05:10 60.1 °F 58.6 °F 29.8 in ENE 0.9 mph 4 mph 95% 0 in 0 W/m2
05:15 60.1 °F 58.3 °F 29.8 in Calm   2 mph 94% 0 in 0 W/m2
05:20 60.1 °F 58.3 °F 29.8 in Calm   2 mph 94% 0 in 0 W/m2
05:25 60.1 °F 58.3 °F 29.8 in Calm     94% 0 in 0 W/m2
05:30 60.1 °F 58.3 °F 29.8 in Calm   2 mph 94% 0 in 0 W/m2
05:35 60.1 °F 58.3 °F 29.8 in Calm   2 mph 94% 0 in 0 W/m2
05:40 60.1 °F 58.3 °F 29.8 in NE 2 mph 2 mph 94% 0 in 0 W/m2
05:45 59.9 °F 58.1 °F 29.8 in Calm   3 mph 94% 0 in 0 W/m2
05:50 59.7 °F 57.9 °F 29.8 in Calm     94% 0 in 5 W/m2
05:55 59.7 °F 57.9 °F 29.8 in NE 0.9 mph 3 mph 94% 0 in 5 W/m2
06:00 59.7 °F 58.3 °F 29.8 in Calm   1 mph 95% 0 in 7 W/m2
06:05 59.7 °F 58.3 °F 29.8 in North 2 mph 3 mph 95% 0 in 7 W/m2
06:10 59.9 °F 58.5 °F 29.8 in Calm     95% 0 in 9 W/m2
06:16 59.9 °F 58.5 °F 29.8 in North 0.9 mph 4 mph 95% 0 in 9 W/m2
06:21 59.9 °F 58.5 °F 29.8 in NNE 0.9 mph 2 mph 95% 0 in 7 W/m2
06:26 59.9 °F 58.5 °F 29.8 in Calm   4 mph 95% 0 in 7 W/m2
06:31 60.1 °F 58.6 °F 29.8 in Calm     95% 0 in 7 W/m2
06:36 60.1 °F 58.6 °F 29.8 in NNE 0.9 mph 2 mph 95% 0 in 7 W/m2
06:41 60.1 °F 58.6 °F 29.8 in ENE 2 mph 2 mph 95% 0 in 11 W/m2
06:46 60.1 °F 58.3 °F 29.8 in Calm   2 mph 94% 0 in 9 W/m2
06:51 60.1 °F 58.3 °F 29.8 in NE 2 mph 2 mph 94% 0 in 9 W/m2
06:56 60.1 °F 58.6 °F 29.8 in East 2 mph 5 mph 95% 0 in 7 W/m2
07:01 60.1 °F 58.3 °F 29.8 in North 2 mph 3 mph 94% 0 in 7 W/m2
07:06 60.3 °F 58.5 °F 29.8 in NNE 2 mph 3 mph 94% 0 in 7 W/m2
07:11 60.3 °F 58.5 °F 29.8 in Calm     94% 0 in 11 W/m2
07:16 60.3 °F 58.5 °F 29.8 in Calm   3 mph 94% 0 in 14 W/m2
07:21 60.3 °F 58.5 °F 29.8 in NE 0.9 mph 2 mph 94% 0 in 16 W/m2
07:26 60.3 °F 58.5 °F 29.8 in Calm     94% 0 in 16 W/m2
07:31 60.3 °F 58.5 °F 29.8 in Calm     94% 0.01 in 21 W/m2
07:36 60.3 °F 58.5 °F 29.8 in North 3 mph 3 mph 94% 0.02 in 25 W/m2
07:41 60.3 °F 58.5 °F 29.8 in Calm   1 mph 94% 0.02 in 32 W/m2
07:46 60.3 °F 58.5 °F 29.8 in NE 0.9 mph 2 mph 94% 0.02 in 39 W/m2
07:51 60.3 °F 58.8 °F 29.8 in NNE 0.9 mph 4 mph 95% 0.02 in 28 W/m2
07:56 60.3 °F 58.8 °F 29.8 in Calm   2 mph 95% 0.02 in 26 W/m2
08:01 60.3 °F 58.8 °F 29.8 in Calm   4 mph 95% 0.02 in 28 W/m2
08:06 60.3 °F 58.8 °F 29.8 in East 0.9 mph 2 mph 95% 0.02 in 49 W/m2
08:11 60.3 °F 58.8 °F 29.8 in Calm   3 mph 95% 0.02 in 56 W/m2
08:16 60.3 °F 58.8 °F 29.8 in Calm   1 mph 95% 0.02 in 60 W/m2
08:21 60.3 °F 58.8 °F 29.8 in Calm   2 mph 95% 0.03 in 70 W/m2
08:26 60.3 °F 58.8 °F 29.8 in Calm   2 mph 95% 0.03 in 63 W/m2
08:31 60.4 °F 59 °F 29.8 in North 0.9 mph 2 mph 95% 0.02 in 83 W/m2
08:36 60.4 °F 59 °F 29.8 in Calm     95% 0.02 in 144 W/m2
08:41 60.6 °F 59.2 °F 29.8 in Calm     95% 0.02 in 149 W/m2
08:46 61 °F 59.5 °F 29.8 in Calm   1 mph 95% 0.02 in 120 W/m2
08:51 61 °F 59.5 °F 29.8 in NE 0.9 mph 2 mph 95% 0.02 in 114 W/m2
08:56 61 °F 59.5 °F 29.8 in Calm   2 mph 95% 0.01 in 105 W/m2
09:01 61 °F 59.5 °F 29.8 in Calm   2 mph 95% 0.01 in 107 W/m2
09:06 61 °F 59.5 °F 29.8 in NNE 0.9 mph 2 mph 95% 0.01 in 114 W/m2
09:11 61.2 °F 59.7 °F 29.8 in Calm   2 mph 95% 0.01 in 116 W/m2
09:16 61.2 °F 59.7 °F 29.8 in NW 2 mph 4 mph 95% 0.01 in 121 W/m2
09:21 61.2 °F 59.7 °F 29.8 in Calm   1 mph 95% 0 in 98 W/m2
09:26 61.3 °F 59.9 °F 29.8 in Calm   2 mph 95% 0 in 95 W/m2
09:31 61.3 °F 59.5 °F 29.8 in Calm   2 mph 94% 0 in 109 W/m2
09:36 61.5 °F 60.1 °F 29.8 in Calm   1 mph 95% 0 in 97 W/m2
09:41 61.5 °F 59.7 °F 29.8 in NW 0.9 mph 1 mph 94% 0 in 113 W/m2
09:46 61.5 °F 59.7 °F 29.8 in SSE 2 mph 3 mph 94% 0 in 88 W/m2
09:51 61.5 °F 59.7 °F 29.8 in WNW 2 mph 3 mph 94% 0 in 91 W/m2
09:56 61.3 °F 59.5 °F 29.8 in Calm   2 mph 94% 0 in 113 W/m2
10:01 61.5 °F 59.7 °F 29.8 in WNW 4 mph 5 mph 94% 0 in 86 W/m2
10:06 61.5 °F 59.7 °F 29.8 in NW 2.9 mph 4 mph 94% 0 in 97 W/m2
10:11 61.3 °F 59.5 °F 29.8 in WNW 2 mph 3 mph 94% 0 in 105 W/m2
10:16 61.5 °F 60.1 °F 29.8 in NW 2.9 mph 3 mph 95% 0 in 118 W/m2
10:21 61.5 °F 59.7 °F 29.8 in NW 2.9 mph 4 mph 94% 0 in 111 W/m2
10:26 61.5 °F 60.1 °F 29.8 in Calm   3 mph 95% 0 in 98 W/m2
10:31 61.5 °F 60.1 °F 29.8 in NW 2 mph 4 mph 95% 0 in 114 W/m2
10:36 61.5 °F 60.1 °F 29.8 in Calm   2 mph 95% 0 in 114 W/m2
10:41 61.7 °F 60.3 °F 29.8 in Calm   3 mph 95% 0 in 111 W/m2
10:46 61.7 °F 60.3 °F 29.8 in Calm     95% 0 in 95 W/m2
10:51 61.9 °F 60.4 °F 29.8 in Calm     95% 0 in 77 W/m2
10:56 62.1 °F 60.3 °F 29.8 in WNW 0.9 mph 2 mph 94% 0 in 81 W/m2
11:01 62.1 °F 60.3 °F 29.8 in Calm   1 mph 94% 0 in 116 W/m2
11:06 62.1 °F 60.6 °F 29.8 in West 0.9 mph 2 mph 95% 0 in 111 W/m2
11:11 62.2 °F 60.8 °F 29.8 in NW 0.9 mph 4 mph 95% 0 in 113 W/m2
11:16 62.2 °F 60.8 °F 29.8 in WNW 0.9 mph 3 mph 95% 0 in 120 W/m2
11:21 62.2 °F 60.8 °F 29.8 in Calm   1 mph 95% 0 in 111 W/m2
11:26 62.4 °F 61 °F 29.8 in Calm     95% 0 in 95 W/m2
11:31 62.4 °F 61 °F 29.8 in Calm     95% 0 in 91 W/m2
11:36 62.8 °F 61.3 °F 29.8 in Calm   1 mph 95% 0 in 116 W/m2
11:42 62.8 °F 61.3 °F 29.8 in Calm   1 mph 95% 0 in 156 W/m2
11:47 63 °F 61.5 °F 29.8 in Calm   1 mph 95% 0 in 165 W/m2
11:52 63.1 °F 61.3 °F 29.8 in NW 0.9 mph 3 mph 94% 0 in 104 W/m2
11:57 63.1 °F 61.3 °F 29.8 in SW 0.9 mph 4 mph 94% 0 in 102 W/m2
12:02 63.3 °F 61.5 °F 29.8 in Calm   1 mph 94% 0 in 120 W/m2
12:07 63.3 °F 61.5 °F 29.8 in WNW 4 mph 4 mph 94% 0 in 146 W/m2
12:12 63.5 °F 61.7 °F 29.8 in WNW 0.9 mph 3 mph 94% 0 in 167 W/m2
12:17 63.5 °F 61.7 °F 29.8 in West 0.9 mph 2 mph 94% 0 in 162 W/m2
12:22 63.5 °F 61.7 °F 29.8 in WNW 0.9 mph 3 mph 94% 0 in 128 W/m2
12:27 63.7 °F 61.9 °F 29.8 in West 2 mph 3 mph 94% 0 in 104 W/m2
12:32 63.7 °F 61.9 °F 29.8 in WNW 0.9 mph 3 mph 94% 0 in 95 W/m2
12:37 63.9 °F 62.1 °F 29.8 in WNW 2 mph 2 mph 94% 0 in 76 W/m2
12:42 63.9 °F 62.1 °F 29.8 in WNW 0.9 mph 3 mph 94% 0 in 60 W/m2
12:47 64 °F 62.2 °F 29.8 in West 2 mph 4 mph 94% 0 in 39 W/m2
12:52 63.9 °F 62.1 °F 29.8 in West 2.9 mph 4 mph 94% 0 in 39 W/m2
12:57 63.9 °F 61.9 °F 29.8 in West 2 mph 3 mph 93% 0 in 53 W/m2
13:02 63.7 °F 61.7 °F 29.8 in West 2.9 mph 4 mph 93% 0 in 79 W/m2
13:07 63.7 °F 61.7 °F 29.8 in West 6 mph 9 mph 93% 0.01 in 79 W/m2
13:12 63.3 °F 61.3 °F 29.8 in WSW 4.9 mph 7 mph 93% 0.01 in 93 W/m2
13:17 63.1 °F 61.3 °F 29.8 in NW 2 mph 5 mph 94% 0.02 in 88 W/m2
13:22 63 °F 61.2 °F 29.8 in NNW 4 mph 8 mph 94% 0.03 in 77 W/m2
13:27 63 °F 61.2 °F 29.8 in WNW 4 mph 5 mph 94% 0.04 in 63 W/m2
13:32 62.8 °F 61 °F 29.8 in WSW 2.9 mph 4 mph 94% 0.06 in 60 W/m2
13:37 62.6 °F 60.8 °F 29.8 in NW 4 mph 6 mph 94% 0.07 in 76 W/m2
13:42 62.4 °F 60.6 °F 29.8 in West 2 mph 6 mph 94% 0.09 in 84 W/m2
13:47 62.2 °F 60.4 °F 29.8 in West 2.9 mph 8 mph 94% 0.11 in 97 W/m2
13:52 62.1 °F 60.3 °F 29.8 in West 2.9 mph 8 mph 94% 0.13 in 76 W/m2
13:57 62.1 °F 60.3 °F 29.8 in WNW 2.9 mph 5 mph 94% 0.17 in 83 W/m2
14:02 62.1 °F 60.6 °F 29.8 in West 4 mph 8 mph 95% 0.18 in 91 W/m2
14:07 61.9 °F 60.4 °F 29.8 in West 4 mph 8 mph 95% 0.19 in 91 W/m2
14:12 61.9 °F 60.4 °F 29.8 in WNW 2.9 mph 4 mph 95% 0.21 in 86 W/m2
14:17 61.7 °F 60.3 °F 29.8 in West 6 mph 10 mph 95% 0.21 in 76 W/m2
14:22 61.5 °F 60.1 °F 29.8 in WNW 4 mph 9 mph 95% 0.21 in 81 W/m2
14:27 61.3 °F 59.9 °F 29.8 in West 4 mph 7 mph 95% 0.22 in 77 W/m2
14:32 61.3 °F 59.9 °F 29.8 in West 4 mph 5 mph 95% 0.23 in 74 W/m2
14:37 61.3 °F 59.9 °F 29.8 in WNW 8.1 mph 9 mph 95% 0.23 in 72 W/m2
14:42 61.3 °F 59.9 °F 29.8 in WNW 4.9 mph 7 mph 95% 0.22 in 74 W/m2
14:47 61.2 °F 59.7 °F 29.8 in WSW 2.9 mph 5 mph 95% 0.22 in 70 W/m2
14:52 61.2 °F 59.7 °F 29.8 in NW 0.9 mph 4 mph 95% 0.21 in 60 W/m2
14:57 61.2 °F 59.7 °F 29.8 in West 2 mph 6 mph 95% 0.2 in 54 W/m2
15:02 61 °F 59.5 °F 29.8 in West 2 mph 3 mph 95% 0.2 in 58 W/m2
15:07 61.2 °F 59.7 °F 29.8 in WNW 2 mph 4 mph 95% 0.2 in 60 W/m2
15:12 61.2 °F 59.7 °F 29.8 in West 4 mph 6 mph 95% 0.19 in 72 W/m2
15:17 61 °F 59.5 °F 29.8 in Calm   6 mph 95% 0.19 in 67 W/m2
15:22 61 °F 59.5 °F 29.8 in West 2 mph 7 mph 95% 0.2 in 51 W/m2
15:27 61 °F 59.5 °F 29.8 in WNW 2.9 mph 5 mph 95% 0.2 in 46 W/m2
15:32 61 °F 59.5 °F 29.8 in WNW 6.9 mph 7 mph 95% 0.2 in 44 W/m2
15:37 61 °F 59.5 °F 29.8 in West 2.9 mph 9 mph 95% 0.2 in 47 W/m2
15:42 60.8 °F 59.4 °F 29.8 in WNW 2 mph 7 mph 95% 0.21 in 46 W/m2
15:47 60.8 °F 59.4 °F 29.8 in West 2.9 mph 10 mph 95% 0.21 in 53 W/m2
15:52 60.8 °F 59.4 °F 29.8 in West 2 mph 4 mph 95% 0.23 in 65 W/m2
15:57 60.8 °F 59.4 °F 29.8 in West 2 mph 8 mph 95% 0.24 in 69 W/m2
16:02 61 °F 59.5 °F 29.8 in West 6 mph 10 mph 95% 0.26 in 70 W/m2
16:07 61 °F 59.5 °F 29.8 in WNW 8.1 mph 8 mph 95% 0.28 in 63 W/m2
16:12 61 °F 59.9 °F 29.8 in West 0.9 mph 9 mph 96% 0.32 in 53 W/m2
16:17 61 °F 59.9 °F 29.8 in WNW 0.9 mph 6 mph 96% 0.33 in 46 W/m2
16:22 61 °F 59.9 °F 29.8 in WSW 4.9 mph 10 mph 96% 0.34 in 42 W/m2
16:27 61 °F 59.9 °F 29.8 in WNW 6.9 mph 9 mph 96% 0.38 in 49 W/m2
16:32 61 °F 59.9 °F 29.8 in WNW 4 mph 9 mph 96% 0.41 in 40 W/m2
16:37 61 °F 59.9 °F 29.8 in WNW 6.9 mph 8 mph 96% 0.41 in 37 W/m2
16:42 61 °F 59.9 °F 29.8 in WNW 4.9 mph 7 mph 96% 0.42 in 37 W/m2
16:47 61 °F 59.9 °F 29.8 in WNW 2 mph 5 mph 96% 0.46 in 30 W/m2
16:52 61 °F 59.9 °F 29.8 in WNW 4 mph 9 mph 96% 0.46 in 23 W/m2
16:57 60.8 °F 59.7 °F 29.8 in West 4 mph 4 mph 96% 0.45 in 21 W/m2
17:02 60.8 °F 59.7 °F 29.8 in West 8.1 mph 9 mph 96% 0.44 in 21 W/m2
17:07 60.8 °F 59.7 °F 29.8 in WNW 0.9 mph 4 mph 96% 0.43 in 25 W/m2
17:12 60.8 °F 59.7 °F 29.8 in West 2 mph 5 mph 96% 0.39 in 23 W/m2
17:17 60.6 °F 59.5 °F 29.8 in West 4 mph 7 mph 96% 0.39 in 30 W/m2
17:22 60.6 °F 59.5 °F 29.8 in WSW 4 mph 11 mph 96% 0.38 in 30 W/m2
17:27 60.6 °F 59.5 °F 29.8 in West 4 mph 8 mph 96% 0.33 in 26 W/m2
17:32 60.4 °F 59.4 °F 29.8 in SW 4 mph 11 mph 96% 0.3 in 26 W/m2
17:37 60.4 °F 59.4 °F 29.8 in West 6 mph 8 mph 96% 0.3 in 32 W/m2
17:42 60.4 °F 59.4 °F 29.8 in WNW 6 mph 10 mph 96% 0.29 in 19 W/m2
17:47 60.4 °F 59.4 °F 29.8 in WNW 4 mph 9 mph 96% 0.26 in 30 W/m2
17:52 60.4 °F 59.4 °F 29.8 in WNW 0.9 mph 4 mph 96% 0.24 in 30 W/m2
17:57 60.4 °F 59.4 °F 29.8 in West 4 mph 7 mph 96% 0.23 in 26 W/m2
18:02 60.3 °F 59.2 °F 29.8 in West 4 mph 8 mph 96% 0.21 in 21 W/m2
18:07 60.3 °F 59.2 °F 29.8 in NW 4.9 mph 6 mph 96% 0.21 in 18 W/m2
18:12 60.3 °F 59.2 °F 29.8 in West 0.9 mph 8 mph 96% 0.2 in 19 W/m2
18:17 60.3 °F 59.2 °F 29.8 in NW 2.9 mph 6 mph 96% 0.19 in 18 W/m2
18:22 60.3 °F 59.2 °F 29.8 in West 0.9 mph 7 mph 96% 0.21 in 19 W/m2
18:27 60.3 °F 59.2 °F 29.8 in West 2.9 mph 3 mph 96% 0.22 in 14 W/m2
18:32 60.1 °F 59 °F 29.8 in West 2.9 mph 4 mph 96% 0.23 in 14 W/m2
18:37 60.1 °F 59 °F 29.8 in West 2.9 mph 4 mph 96% 0.22 in 14 W/m2
18:42 60.1 °F 59 °F 29.8 in West 2.9 mph 4 mph 96% 0.22 in 18 W/m2
18:47 60.1 °F 59 °F 29.8 in WSW 2 mph 8 mph 96% 0.22 in 21 W/m2
18:52 59.9 °F 58.8 °F 29.8 in West 4 mph 7 mph 96% 0.22 in 21 W/m2
18:57 59.9 °F 58.8 °F 29.8 in WNW 2.9 mph 8 mph 96% 0.23 in 25 W/m2
19:02 59.9 °F 58.8 °F 29.8 in WSW 4.9 mph 6 mph 96% 0.23 in 23 W/m2
19:07 59.9 °F 58.8 °F 29.8 in WSW 2 mph 6 mph 96% 0.22 in 21 W/m2
19:12 59.9 °F 58.8 °F 29.8 in WNW 2.9 mph 6 mph 96% 0.23 in 19 W/m2
19:17 59.7 °F 58.6 °F 29.8 in WNW 4 mph 5 mph 96% 0.21 in 18 W/m2
19:22 59.7 °F 58.6 °F 29.8 in West 6 mph 7 mph 96% 0.19 in 16 W/m2
19:27 59.7 °F 58.6 °F 29.8 in WSW 2 mph 4 mph 96% 0.18 in 16 W/m2
19:32 59.7 °F 58.6 °F 29.8 in WSW 4 mph 8 mph 96% 0.17 in 16 W/m2
19:37 59.7 °F 58.6 °F 29.8 in WNW 2.9 mph 6 mph 96% 0.16 in 18 W/m2
19:42 59.7 °F 58.6 °F 29.8 in West 2.9 mph 7 mph 96% 0.15 in 19 W/m2
19:47 59.7 °F 58.6 °F 29.8 in West 4 mph 9 mph 96% 0.15 in 23 W/m2
19:52 59.7 °F 58.6 °F 29.8 in WNW 6.9 mph 7 mph 96% 0.15 in 21 W/m2
19:57 59.7 °F 58.6 °F 29.8 in WSW 4 mph 9 mph 96% 0.16 in 18 W/m2
20:02 59.7 °F 58.6 °F 29.8 in WSW 2.9 mph 9 mph 96% 0.15 in 19 W/m2
20:07 59.5 °F 58.5 °F 29.8 in WSW 2.9 mph 10 mph 96% 0.16 in 19 W/m2
20:12 59.5 °F 58.5 °F 29.8 in WNW 4.9 mph 7 mph 96% 0.16 in 14 W/m2
20:17 59.5 °F 58.5 °F 29.8 in WNW 2.9 mph 6 mph 96% 0.17 in 12 W/m2
20:22 59.5 °F 58.5 °F 29.8 in SW 6 mph 8 mph 96% 0.17 in 9 W/m2
20:28 59.5 °F 58.5 °F 29.8 in West 4 mph 7 mph 96% 0.17 in 7 W/m2
20:33 59.5 °F 58.5 °F 29.8 in WSW 4.9 mph 7 mph 96% 0.17 in 7 W/m2
20:38 59.5 °F 58.5 °F 29.8 in West 4 mph 8 mph 96% 0.17 in 5 W/m2
20:43 59.5 °F 58.5 °F 29.8 in West 2.9 mph 8 mph 96% 0.18 in 5 W/m2
20:48 59.5 °F 58.5 °F 29.8 in WSW 4.9 mph 8 mph 96% 0.2 in 5 W/m2
20:53 59.5 °F 58.5 °F 29.8 in WNW 12.1 mph 12 mph 96% 0.19 in 5 W/m2
20:58 59.5 °F 58.5 °F 29.8 in WSW 8.9 mph 9 mph 96% 0.18 in 0 W/m2
21:03 59.4 °F 58.3 °F 29.8 in WNW 6.9 mph 9 mph 96% 0.18 in 0 W/m2
21:08 59.4 °F 58.3 °F 29.8 in WSW 6.9 mph 12 mph 96% 0.17 in 0 W/m2
21:13 59.4 °F 58.3 °F 29.8 in SSE 6 mph 10 mph 96% 0.17 in 0 W/m2
Juneau County Weather
Compliments of Weather Underground - 4 mb